createdAt,value
2022-12-09T00:00:37.035Z,379.70
2022-12-09T00:03:31.632Z,552.22
2022-12-09T00:06:27.734Z,676.10
2022-12-09T00:09:15.883Z,761.55
2022-12-09T00:12:01.320Z,711.22
2022-12-09T00:14:47.048Z,543.28
2022-12-09T00:17:32.636Z,607.83
2022-12-09T00:20:20.963Z,587.38
2022-12-09T00:23:06.577Z,491.50
2022-12-09T00:25:51.833Z,499.65
2022-12-09T00:28:38.141Z,573.55
2022-12-09T00:31:29.530Z,582.92
2022-12-09T00:34:15.331Z,590.85
2022-12-09T00:37:00.601Z,553.00
2022-12-09T00:39:46.401Z,562.28
2022-12-09T00:42:32.316Z,338.10
2022-12-09T00:45:17.959Z,419.00
2022-12-09T00:48:06.475Z,295.10
2022-12-09T00:50:53.019Z,538.80
2022-12-09T00:53:41.778Z,627.83
2022-12-09T00:56:29.068Z,491.75
2022-12-09T00:59:17.475Z,480.88
2022-12-09T01:02:03.136Z,306.83
2022-12-09T01:04:52.198Z,466.75
2022-12-09T01:07:37.657Z,394.50
2022-12-09T01:10:23.757Z,227.40
2022-12-09T01:13:13.983Z,248.68
2022-12-09T01:15:59.589Z,182.57
2022-12-09T01:18:46.063Z,183.52
2022-12-09T01:21:32.132Z,332.52
2022-12-09T01:24:17.720Z,260.05
2022-12-09T01:27:03.576Z,253.07
2022-12-09T01:29:49.472Z,236.07
2022-12-09T01:32:35.176Z,147.88
2022-12-09T01:35:21.266Z,114.63
2022-12-09T01:38:08.543Z,103.80
2022-12-09T01:40:55.989Z,138.57
2022-12-09T01:43:42.091Z,123.47
2022-12-09T01:46:29.854Z,146.30
2022-12-09T01:49:48.301Z,163.73
2022-12-09T01:52:36.802Z,131.73
2022-12-09T01:55:22.750Z,124.90
2022-12-09T01:58:09.118Z,116.43
2022-12-09T02:01:04.178Z,137.18
2022-12-09T02:03:50.431Z,113.05
2022-12-09T02:06:38.730Z,134.13
2022-12-09T02:09:26.557Z,115.63
2022-12-09T02:12:29.426Z,101.70
2022-12-09T02:15:22.034Z,101.97
2022-12-09T02:18:32.326Z,97.60
2022-12-09T02:21:36.172Z,137.30
2022-12-09T02:24:36.166Z,100.13
2022-12-09T02:27:44.571Z,104.55
2022-12-09T02:30:43.324Z,99.68
2022-12-09T02:34:06.679Z,96.45
2022-12-09T02:37:10.507Z,92.65
2022-12-09T02:40:02.914Z,87.50
2022-12-09T02:42:49.609Z,81.60
2022-12-09T02:45:37.105Z,74.47
2022-12-09T02:48:29.103Z,73.97
2022-12-09T02:51:18.801Z,75.07
2022-12-09T02:54:12.770Z,69.55
2022-12-09T02:57:11.890Z,69.97
2022-12-09T02:59:58.924Z,77.22
2022-12-09T03:02:50.048Z,77.20
2022-12-09T03:06:00.579Z,72.47
2022-12-09T03:09:03.309Z,77.28
2022-12-09T03:11:50.702Z,80.60
2022-12-09T03:14:41.978Z,73.53
2022-12-09T03:17:33.588Z,77.78
2022-12-09T03:20:25.361Z,72.82
2022-12-09T03:23:16.742Z,72.47
2022-12-09T03:26:06.102Z,69.18
2022-12-09T03:28:54.005Z,66.57
2022-12-09T03:31:45.011Z,61.15
2022-12-09T03:34:36.494Z,59.22
2022-12-09T03:37:22.555Z,61.72
2022-12-09T03:40:14.091Z,54.70
2022-12-09T03:43:11.550Z,58.03
2022-12-09T03:45:59.898Z,54.05
2022-12-09T03:48:46.717Z,55.45
2022-12-09T03:51:52.902Z,50.17
2022-12-09T03:54:47.247Z,51.67
2022-12-09T03:57:37.140Z,50.07
2022-12-09T04:00:25.826Z,47.90
2022-12-09T04:03:14.239Z,44.20
2022-12-09T04:06:03.199Z,45.20
2022-12-09T04:08:51.005Z,44.13
2022-12-09T04:11:36.752Z,41.00
2022-12-09T04:14:22.456Z,39.08
2022-12-09T04:17:07.883Z,41.00
2022-12-09T04:19:53.692Z,39.92
2022-12-09T04:22:39.306Z,39.65
2022-12-09T04:25:24.895Z,38.55
2022-12-09T04:28:10.308Z,45.08
2022-12-09T04:30:56.055Z,41.03
2022-12-09T04:33:42.114Z,42.28
2022-12-09T04:36:27.901Z,38.28
2022-12-09T04:39:16.387Z,42.95
2022-12-09T04:42:01.959Z,38.85
2022-12-09T04:44:47.325Z,38.90
2022-12-09T04:47:36.253Z,42.40
2022-12-09T04:50:21.803Z,40.60
2022-12-09T04:53:10.360Z,43.05
2022-12-09T04:56:03.626Z,40.63
2022-12-09T04:58:50.776Z,44.17
2022-12-09T05:01:36.526Z,36.20
2022-12-09T05:04:24.081Z,43.30
2022-12-09T05:07:11.268Z,42.50
2022-12-09T05:10:01.368Z,42.95
2022-12-09T05:12:47.001Z,38.00
2022-12-09T05:15:32.962Z,39.65
2022-12-09T05:18:21.760Z,35.53
2022-12-09T05:21:09.798Z,40.17
2022-12-09T05:23:55.354Z,43.13
2022-12-09T05:26:41.131Z,42.03
2022-12-09T05:29:27.100Z,46.08
2022-12-09T05:32:12.627Z,44.28
2022-12-09T05:34:58.078Z,49.05
2022-12-09T05:37:43.725Z,43.25
2022-12-09T05:40:29.739Z,48.20
2022-12-09T05:43:15.552Z,48.40
2022-12-09T05:46:02.066Z,52.35
2022-12-09T05:48:47.669Z,51.90
2022-12-09T05:51:33.481Z,60.35
2022-12-09T05:54:18.769Z,56.63
2022-12-09T05:57:05.279Z,56.13
2022-12-09T05:59:50.792Z,56.75
2022-12-09T06:02:36.642Z,61.63
2022-12-09T06:05:22.718Z,65.57
2022-12-09T06:08:08.550Z,67.82
2022-12-09T06:10:54.565Z,75.10
2022-12-09T06:13:40.855Z,73.55
2022-12-09T06:16:26.717Z,72.63
2022-12-09T06:19:18.930Z,78.03
2022-12-09T06:22:04.837Z,91.47
2022-12-09T06:24:56.810Z,92.53
2022-12-09T06:27:43.923Z,90.97
2022-12-09T06:30:29.751Z,89.90
2022-12-09T06:33:45.018Z,83.57
2022-12-09T06:36:21.385Z,90.72
2022-12-09T06:39:10.533Z,93.85
2022-12-09T06:41:57.949Z,92.88
2022-12-09T06:44:44.392Z,104.38
2022-12-09T06:47:29.900Z,98.90
2022-12-09T06:50:16.240Z,107.28
2022-12-09T06:53:02.471Z,110.63
2022-12-09T06:55:48.813Z,106.63
2022-12-09T06:58:35.012Z,114.85
2022-12-09T07:01:27.737Z,118.85
2022-12-09T07:04:14.783Z,111.75
2022-12-09T07:07:00.791Z,113.55
2022-12-09T07:09:48.852Z,115.85
2022-12-09T07:12:34.680Z,123.28
2022-12-09T07:15:23.533Z,124.45
2022-12-09T07:18:09.327Z,125.93
2022-12-09T07:20:55.211Z,138.43
2022-12-09T07:23:41.498Z,145.45
2022-12-09T07:26:26.906Z,142.57
2022-12-09T07:29:12.227Z,160.07
2022-12-09T07:31:58.193Z,145.52
2022-12-09T07:34:44.176Z,140.70
2022-12-09T07:37:29.718Z,153.32
2022-12-09T07:40:15.587Z,147.55
2022-12-09T07:43:00.793Z,136.82
2022-12-09T07:45:46.489Z,142.93
2022-12-09T07:48:32.208Z,142.43
2022-12-09T07:51:17.985Z,147.45
2022-12-09T07:54:14.521Z,149.63
2022-12-09T07:56:59.883Z,134.52
2022-12-09T07:59:45.867Z,144.20
2022-12-09T08:02:33.709Z,144.80
2022-12-09T08:05:19.815Z,128.15
2022-12-09T08:08:06.203Z,138.80
2022-12-09T08:10:51.723Z,126.78
2022-12-09T08:13:37.905Z,131.68
2022-12-09T08:16:27.004Z,117.93
2022-12-09T08:19:16.180Z,138.90
2022-12-09T08:22:07.628Z,137.35
2022-12-09T08:24:53.740Z,119.47
2022-12-09T08:27:39.638Z,130.60
2022-12-09T08:30:28.433Z,127.35
2022-12-09T08:33:14.285Z,131.30
2022-12-09T08:36:01.457Z,131.40
2022-12-09T08:38:47.568Z,126.20
2022-12-09T08:41:37.438Z,128.73
2022-12-09T08:44:24.112Z,124.07
2022-12-09T08:47:09.902Z,118.07
2022-12-09T08:49:55.979Z,126.43
2022-12-09T08:52:43.046Z,123.45
2022-12-09T08:55:28.719Z,113.60
2022-12-09T08:58:14.283Z,111.85
2022-12-09T09:00:59.889Z,100.68
2022-12-09T09:03:46.954Z,107.30
2022-12-09T09:06:33.127Z,102.43
2022-12-09T09:09:20.539Z,90.38
2022-12-09T09:12:07.519Z,94.80
2022-12-09T09:14:54.808Z,85.82
2022-12-09T09:17:42.059Z,79.18
2022-12-09T09:20:30.932Z,72.00
2022-12-09T09:23:16.451Z,69.32
2022-12-09T09:26:10.931Z,62.70
2022-12-09T09:28:59.847Z,68.47
2022-12-09T09:31:48.770Z,64.18
2022-12-09T09:34:34.432Z,64.43
2022-12-09T09:37:20.238Z,60.88
2022-12-09T09:40:07.325Z,58.45
2022-12-09T09:42:54.316Z,58.42
2022-12-09T09:45:39.865Z,57.20
2022-12-09T09:48:30.553Z,52.10
2022-12-09T09:51:24.229Z,60.25
2022-12-09T09:54:14.703Z,57.83
2022-12-09T09:57:29.148Z,63.15
2022-12-09T10:00:30.006Z,59.13
2022-12-09T10:03:37.060Z,56.58
2022-12-09T10:06:52.161Z,49.75
2022-12-09T10:10:05.831Z,62.00
2022-12-09T10:13:23.531Z,58.42
2022-12-09T10:16:26.392Z,61.17
2022-12-09T10:19:28.391Z,61.00
2022-12-09T10:22:18.009Z,51.22
2022-12-09T10:25:17.776Z,56.97
2022-12-09T10:28:30.707Z,51.75
2022-12-09T10:31:16.703Z,58.25
2022-12-09T10:34:02.809Z,58.97
2022-12-09T10:36:49.420Z,55.05
2022-12-09T10:39:35.083Z,56.13
2022-12-09T10:42:39.817Z,54.88
2022-12-09T10:45:45.538Z,53.47
2022-12-09T10:48:51.439Z,48.95
2022-12-09T10:51:39.133Z,45.15
2022-12-09T10:54:31.682Z,46.20
2022-12-09T10:57:17.131Z,45.88
2022-12-09T11:00:22.841Z,43.67
2022-12-09T11:03:27.094Z,40.65
2022-12-09T11:06:26.119Z,33.78
2022-12-09T11:09:31.002Z,41.55
2022-12-09T11:12:30.944Z,32.60
2022-12-09T11:15:38.208Z,29.73
2022-12-09T11:18:30.035Z,31.02
2022-12-09T11:21:31.737Z,28.35
2022-12-09T11:24:26.175Z,29.33
2022-12-09T11:27:33.900Z,29.02
2022-12-09T11:30:22.479Z,27.35
2022-12-09T11:33:19.546Z,28.55
2022-12-09T11:36:10.516Z,27.92
2022-12-09T11:39:08.751Z,28.15
2022-12-09T11:42:18.180Z,31.55
2022-12-09T11:45:30.309Z,32.47
2022-12-09T11:48:36.026Z,27.90
2022-12-09T11:51:43.609Z,28.30
2022-12-09T11:54:45.826Z,35.92
2022-12-09T11:57:42.982Z,30.77
2022-12-09T12:00:37.622Z,33.95
2022-12-09T12:03:31.154Z,33.95
2022-12-09T12:06:36.635Z,30.90
2022-12-09T12:09:37.827Z,31.75
2022-12-09T12:12:44.149Z,30.23
2022-12-09T12:15:47.274Z,32.78
2022-12-09T12:19:11.080Z,33.95
2022-12-09T12:22:11.690Z,35.15
2022-12-09T12:25:17.803Z,34.15
2022-12-09T12:28:13.568Z,35.45
2022-12-09T12:31:30.837Z,36.47
2022-12-09T12:34:26.306Z,35.83
2022-12-09T12:38:01.569Z,35.00
2022-12-09T12:40:59.366Z,39.42
2022-12-09T12:44:28.773Z,42.08
2022-12-09T12:47:18.081Z,46.25
2022-12-09T12:50:03.297Z,45.33
2022-12-09T12:53:12.377Z,49.80
2022-12-09T12:56:03.158Z,46.85
2022-12-09T12:59:31.868Z,50.47
2022-12-09T13:02:55.514Z,48.08
2022-12-09T13:05:48.012Z,45.92
2022-12-09T13:08:39.271Z,40.70
2022-12-09T13:12:01.440Z,45.87
2022-12-09T13:14:54.767Z,45.17
2022-12-09T13:17:41.550Z,48.53
2022-12-09T13:20:53.809Z,44.83
2022-12-09T13:23:45.289Z,50.58
2022-12-09T13:27:02.201Z,44.50
2022-12-09T13:29:59.733Z,48.53
2022-12-09T13:33:18.348Z,58.38
2022-12-09T13:36:35.949Z,55.15
2022-12-09T13:39:42.205Z,52.17
2022-12-09T13:45:45.394Z,54.40
2022-12-09T13:48:30.985Z,58.33
2022-12-09T13:51:17.952Z,59.50
2022-12-09T13:54:06.858Z,58.20
2022-12-09T13:57:12.617Z,65.55
2022-12-09T14:00:04.060Z,55.95
2022-12-09T14:03:02.774Z,58.20
2022-12-09T14:05:49.050Z,64.72
2022-12-09T14:08:49.726Z,61.03
2022-12-09T14:11:46.430Z,58.33
2022-12-09T14:14:34.930Z,65.72
2022-12-09T14:17:25.999Z,70.55
2022-12-09T14:20:22.117Z,60.97
2022-12-09T14:23:07.420Z,64.40
2022-12-09T14:26:10.746Z,57.75
2022-12-09T14:28:57.363Z,61.80
2022-12-09T14:31:45.236Z,55.83
2022-12-09T14:34:32.728Z,62.65
2022-12-09T14:38:00.594Z,57.25
2022-12-09T14:41:04.614Z,66.30
2022-12-09T14:44:08.496Z,77.30
2022-12-09T14:47:20.938Z,80.38
2022-12-09T14:50:18.018Z,74.95
2022-12-09T14:53:20.314Z,96.15
2022-12-09T14:56:06.110Z,175.07
2022-12-09T14:58:59.337Z,395.92
2022-12-09T15:02:19.544Z,365.38
2022-12-09T15:05:16.973Z,218.90
2022-12-09T15:08:05.433Z,543.95
2022-12-09T15:10:50.914Z,252.98
2022-12-09T15:13:45.311Z,500.23
2022-12-09T15:16:31.866Z,722.47
2022-12-09T15:19:57.929Z,379.00
2022-12-09T15:22:32.567Z,311.25
2022-12-09T15:25:19.486Z,418.27
2022-12-09T15:28:19.270Z,288.40
2022-12-09T15:31:18.551Z,420.65
2022-12-09T15:34:20.455Z,359.88
2022-12-09T15:37:12.280Z,471.20
2022-12-09T15:40:08.608Z,612.25
2022-12-09T15:42:55.967Z,486.25
2022-12-09T15:45:44.079Z,795.80
2022-12-09T15:48:35.399Z,775.28
2022-12-09T15:51:22.904Z,822.58
2022-12-09T15:54:14.783Z,702.50
2022-12-09T15:57:06.046Z,885.42
2022-12-09T15:59:58.127Z,628.95
2022-12-09T16:02:45.651Z,810.20
2022-12-09T16:05:31.246Z,909.58
2022-12-09T16:08:16.739Z,866.03
2022-12-09T16:11:03.630Z,725.90
2022-12-09T16:14:00.361Z,632.78
2022-12-09T16:17:02.710Z,789.58
2022-12-09T16:19:48.086Z,710.58
2022-12-09T16:22:42.405Z,861.78
2022-12-09T16:25:37.681Z,675.17
2022-12-09T16:31:20.649Z,673.97
2022-12-09T16:34:06.601Z,673.75
2022-12-09T16:36:57.454Z,826.25
2022-12-09T16:39:45.937Z,464.33
2022-12-09T16:42:37.827Z,664.53
2022-12-09T16:45:37.473Z,558.25
2022-12-09T16:48:25.744Z,458.33
2022-12-09T16:51:12.949Z,710.78
2022-12-09T16:54:02.277Z,537.65
2022-12-09T16:56:47.559Z,416.95
2022-12-09T16:59:37.855Z,527.13
2022-12-09T17:02:23.953Z,595.33
2022-12-09T17:05:10.636Z,369.50
2022-12-09T17:07:56.167Z,491.92
2022-12-09T17:10:45.630Z,279.45
2022-12-09T17:13:30.969Z,264.13
2022-12-09T17:16:22.281Z,297.83
2022-12-09T17:19:08.105Z,299.50
2022-12-09T17:21:53.860Z,184.98
2022-12-09T17:24:40.031Z,220.18
2022-12-09T17:27:29.590Z,188.02
2022-12-09T17:30:17.119Z,193.18
2022-12-09T17:33:02.727Z,226.07
2022-12-09T17:35:47.916Z,165.23
2022-12-09T17:38:34.118Z,180.65
2022-12-09T17:41:23.434Z,195.82
2022-12-09T17:44:09.367Z,137.40
2022-12-09T17:46:54.869Z,156.63
2022-12-09T17:49:40.443Z,141.95
2022-12-09T17:52:31.416Z,196.15
2022-12-09T17:55:25.037Z,238.57
2022-12-09T17:58:10.725Z,285.20
2022-12-09T18:00:56.230Z,314.45
2022-12-09T18:04:01.312Z,320.52
2022-12-09T18:06:50.247Z,423.40
2022-12-09T18:09:35.819Z,420.85
2022-12-09T18:12:21.655Z,317.90
2022-12-09T18:15:07.626Z,280.67
2022-12-09T18:17:53.467Z,212.73
2022-12-09T18:20:39.054Z,220.15
2022-12-09T18:23:24.434Z,226.05
2022-12-09T18:26:14.323Z,234.05
2022-12-09T18:29:03.192Z,192.30
2022-12-09T18:31:54.146Z,220.48
2022-12-09T18:34:40.227Z,215.65
2022-12-09T18:37:26.598Z,197.40
2022-12-09T18:40:12.698Z,186.05
2022-12-09T18:42:57.963Z,209.75
2022-12-09T18:45:43.518Z,190.00
2022-12-09T18:48:32.730Z,204.43
2022-12-09T18:51:21.606Z,200.45
2022-12-09T18:54:11.041Z,176.30
2022-12-09T18:56:56.376Z,180.50
2022-12-09T18:59:42.085Z,176.60
2022-12-09T19:02:30.419Z,173.50
2022-12-09T19:05:15.598Z,189.75
2022-12-09T19:08:01.279Z,177.32
2022-12-09T19:10:54.216Z,188.23
2022-12-09T19:13:42.767Z,198.80
2022-12-09T19:16:31.342Z,202.88
2022-12-09T19:19:20.305Z,205.32
2022-12-09T19:22:06.965Z,198.93
2022-12-09T19:24:52.353Z,194.23
2022-12-09T19:27:37.592Z,191.85
2022-12-09T19:30:26.194Z,181.90
2022-12-09T19:33:12.610Z,182.30
2022-12-09T19:36:02.174Z,183.13
2022-12-09T19:38:47.438Z,201.80
2022-12-09T19:41:33.073Z,196.85
2022-12-09T19:44:37.234Z,185.63
2022-12-09T19:47:31.712Z,180.98
2022-12-09T19:50:17.202Z,183.32
2022-12-09T19:53:02.823Z,186.38
2022-12-09T19:55:53.167Z,191.20
2022-12-09T19:58:40.412Z,173.38
2022-12-09T20:01:38.115Z,180.90
2022-12-09T20:07:30.793Z,176.43
2022-12-09T20:10:17.010Z,175.75
2022-12-09T20:13:02.459Z,169.10
2022-12-09T20:15:47.938Z,188.95
2022-12-09T20:18:34.068Z,196.10
2022-12-09T20:21:21.021Z,189.90
2022-12-09T20:24:07.069Z,184.57
2022-12-09T20:26:52.447Z,205.40
2022-12-09T20:29:38.566Z,212.45
2022-12-09T20:32:24.290Z,191.00
2022-12-09T20:35:09.895Z,184.48
2022-12-09T20:37:55.234Z,200.68
2022-12-09T20:40:41.159Z,187.45
2022-12-09T20:43:29.338Z,198.15
2022-12-09T20:46:24.240Z,193.18
2022-12-09T20:49:09.591Z,192.80
2022-12-09T20:51:55.466Z,194.90
2022-12-09T20:54:41.100Z,200.93
2022-12-09T20:57:28.472Z,191.20
2022-12-09T21:00:14.374Z,193.07
2022-12-09T21:02:59.806Z,212.50
2022-12-09T21:05:45.951Z,182.98
2022-12-09T21:08:32.175Z,192.85
2022-12-09T21:11:19.971Z,182.18
2022-12-09T21:14:09.494Z,188.20
2022-12-09T21:16:55.153Z,192.88
2022-12-09T21:19:40.559Z,185.27
2022-12-09T21:22:27.230Z,189.80
2022-12-09T21:25:18.130Z,178.95
2022-12-09T21:28:03.841Z,183.60
2022-12-09T21:30:49.226Z,177.77
2022-12-09T21:33:36.197Z,173.32
2022-12-09T21:36:27.727Z,183.48
2022-12-09T21:39:15.328Z,174.85
2022-12-09T21:42:01.457Z,168.02
2022-12-09T21:44:47.157Z,176.02
2022-12-09T21:47:32.693Z,164.15
2022-12-09T21:50:20.054Z,166.02
2022-12-09T21:53:05.855Z,168.90
2022-12-09T21:55:52.130Z,154.00
2022-12-09T21:58:38.210Z,161.60
2022-12-09T22:01:36.192Z,160.10
2022-12-09T22:04:21.427Z,183.80
2022-12-09T22:07:07.039Z,163.65
2022-12-09T22:09:52.655Z,178.38
2022-12-09T22:12:37.869Z,178.75
2022-12-09T22:15:23.605Z,176.60
2022-12-09T22:18:09.211Z,169.32
2022-12-09T22:21:23.471Z,176.05
2022-12-09T22:26:48.346Z,152.93
2022-12-09T22:29:36.536Z,153.07
2022-12-09T22:32:22.080Z,145.95
2022-12-09T22:35:08.162Z,151.52
2022-12-09T22:37:53.820Z,148.48
2022-12-09T22:40:39.528Z,152.57
2022-12-09T22:43:25.926Z,138.80
2022-12-09T22:46:23.252Z,148.82
2022-12-09T22:49:08.495Z,139.93
2022-12-09T22:52:00.328Z,140.07
2022-12-09T22:54:46.306Z,135.77
2022-12-09T22:57:31.829Z,149.00
2022-12-09T23:00:17.466Z,147.13
2022-12-09T23:03:03.268Z,145.25
2022-12-09T23:05:49.142Z,139.98
2022-12-09T23:08:39.019Z,152.73
2022-12-09T23:11:28.818Z,169.52
2022-12-09T23:14:15.099Z,171.70
2022-12-09T23:17:02.682Z,164.50
2022-12-09T23:19:47.902Z,179.73
2022-12-09T23:22:33.764Z,179.63
2022-12-09T23:25:20.707Z,191.23
2022-12-09T23:28:06.467Z,213.55
2022-12-09T23:30:51.628Z,200.60
2022-12-09T23:33:38.775Z,212.15
2022-12-09T23:36:33.787Z,200.52
2022-12-09T23:39:19.665Z,193.50
2022-12-09T23:42:05.133Z,194.13
2022-12-09T23:44:50.678Z,193.20
2022-12-09T23:47:36.044Z,198.20
2022-12-09T23:50:21.389Z,199.82
2022-12-09T23:53:07.069Z,214.30
2022-12-09T23:55:52.534Z,193.85
2022-12-09T23:58:39.097Z,209.10
